sensor_id;sensor_type;location;lat;lon;timestamp;P1;durP1;ratioP1;P2;durP2;ratioP2
16634;SDS011;8431;52.458;9.998;2022-09-09T00:01:00;4.90;;;4.50;;
16634;SDS011;8431;52.458;9.998;2022-09-09T00:03:35;4.43;;;3.88;;
16634;SDS011;8431;52.458;9.998;2022-09-09T00:06:08;6.38;;;4.40;;
16634;SDS011;8431;52.458;9.998;2022-09-09T00:08:45;7.22;;;4.45;;
16634;SDS011;8431;52.458;9.998;2022-09-09T00:11:26;4.80;;;4.30;;
16634;SDS011;8431;52.458;9.998;2022-09-09T00:13:59;4.10;;;3.72;;
16634;SDS011;8431;52.458;9.998;2022-09-09T00:16:29;4.15;;;3.80;;
16634;SDS011;8431;52.458;9.998;2022-09-09T00:19:03;4.03;;;3.60;;
16634;SDS011;8431;52.458;9.998;2022-09-09T00:21:33;6.30;;;3.90;;
16634;SDS011;8431;52.458;9.998;2022-09-09T00:24:08;4.03;;;3.60;;
16634;SDS011;8431;52.458;9.998;2022-09-09T00:26:43;4.40;;;3.72;;
16634;SDS011;8431;52.458;9.998;2022-09-09T00:29:17;3.83;;;3.05;;
16634;SDS011;8431;52.458;9.998;2022-09-09T00:31:53;4.68;;;3.40;;
16634;SDS011;8431;52.458;9.998;2022-09-09T00:34:24;4.00;;;3.63;;
16634;SDS011;8431;52.458;9.998;2022-09-09T00:36:53;7.03;;;3.78;;
16634;SDS011;8431;52.458;9.998;2022-09-09T00:39:24;5.70;;;3.42;;
16634;SDS011;8431;52.458;9.998;2022-09-09T00:42:01;3.95;;;3.40;;
16634;SDS011;8431;52.458;9.998;2022-09-09T00:44:37;3.40;;;3.20;;
16634;SDS011;8431;52.458;9.998;2022-09-09T00:47:09;4.85;;;3.28;;
16634;SDS011;8431;52.458;9.998;2022-09-09T00:49:49;10.52;;;3.38;;
16634;SDS011;8431;52.458;9.998;2022-09-09T00:52:30;5.90;;;2.97;;
16634;SDS011;8431;52.458;9.998;2022-09-09T00:55:10;7.57;;;3.35;;
16634;SDS011;8431;52.458;9.998;2022-09-09T00:57:45;3.38;;;3.08;;
16634;SDS011;8431;52.458;9.998;2022-09-09T01:00:16;2.92;;;2.72;;
16634;SDS011;8431;52.458;9.998;2022-09-09T01:02:53;5.82;;;3.05;;
16634;SDS011;8431;52.458;9.998;2022-09-09T01:05:39;3.20;;;2.95;;
16634;SDS011;8431;52.458;9.998;2022-09-09T01:08:27;2.90;;;2.70;;
16634;SDS011;8431;52.458;9.998;2022-09-09T01:11:03;3.03;;;2.70;;
16634;SDS011;8431;52.458;9.998;2022-09-09T01:13:34;3.10;;;2.78;;
16634;SDS011;8431;52.458;9.998;2022-09-09T01:16:03;2.55;;;2.45;;
16634;SDS011;8431;52.458;9.998;2022-09-09T01:18:32;2.85;;;2.60;;
16634;SDS011;8431;52.458;9.998;2022-09-09T01:21:04;3.72;;;2.60;;
16634;SDS011;8431;52.458;9.998;2022-09-09T01:23:46;4.15;;;2.63;;
16634;SDS011;8431;52.458;9.998;2022-09-09T01:26:28;2.65;;;2.50;;
16634;SDS011;8431;52.458;9.998;2022-09-09T01:28:58;3.50;;;3.00;;
16634;SDS011;8431;52.458;9.998;2022-09-09T01:31:26;3.00;;;2.80;;
16634;SDS011;8431;52.458;9.998;2022-09-09T01:33:56;3.67;;;2.97;;
16634;SDS011;8431;52.458;9.998;2022-09-09T01:36:29;3.33;;;2.65;;
16634;SDS011;8431;52.458;9.998;2022-09-09T01:39:01;2.58;;;2.20;;
16634;SDS011;8431;52.458;9.998;2022-09-09T01:41:30;3.85;;;2.17;;
16634;SDS011;8431;52.458;9.998;2022-09-09T01:43:57;4.60;;;2.72;;
16634;SDS011;8431;52.458;9.998;2022-09-09T01:46:24;3.30;;;2.28;;
16634;SDS011;8431;52.458;9.998;2022-09-09T01:48:51;3.67;;;2.90;;
16634;SDS011;8431;52.458;9.998;2022-09-09T01:51:19;5.03;;;2.78;;
16634;SDS011;8431;52.458;9.998;2022-09-09T01:53:47;3.13;;;2.35;;
16634;SDS011;8431;52.458;9.998;2022-09-09T01:56:18;2.67;;;2.35;;
16634;SDS011;8431;52.458;9.998;2022-09-09T01:58:59;2.97;;;2.30;;
16634;SDS011;8431;52.458;9.998;2022-09-09T02:01:50;4.47;;;2.65;;
16634;SDS011;8431;52.458;9.998;2022-09-09T02:04:30;2.30;;;2.20;;
16634;SDS011;8431;52.458;9.998;2022-09-09T02:07:03;3.30;;;2.63;;
16634;SDS011;8431;52.458;9.998;2022-09-09T02:09:37;2.47;;;2.28;;
16634;SDS011;8431;52.458;9.998;2022-09-09T02:12:08;2.67;;;2.15;;
16634;SDS011;8431;52.458;9.998;2022-09-09T02:14:42;2.72;;;2.40;;
16634;SDS011;8431;52.458;9.998;2022-09-09T02:17:13;2.50;;;2.00;;
16634;SDS011;8431;52.458;9.998;2022-09-09T02:19:45;5.72;;;2.50;;
16634;SDS011;8431;52.458;9.998;2022-09-09T02:22:15;2.85;;;2.20;;
16634;SDS011;8431;52.458;9.998;2022-09-09T02:24:45;3.00;;;2.40;;
16634;SDS011;8431;52.458;9.998;2022-09-09T02:27:15;3.30;;;2.45;;
16634;SDS011;8431;52.458;9.998;2022-09-09T02:29:45;4.85;;;2.47;;
16634;SDS011;8431;52.458;9.998;2022-09-09T02:32:13;2.40;;;2.20;;
16634;SDS011;8431;52.458;9.998;2022-09-09T02:34:46;4.72;;;2.25;;
16634;SDS011;8431;52.458;9.998;2022-09-09T02:37:16;3.22;;;2.85;;
16634;SDS011;8431;52.458;9.998;2022-09-09T02:39:46;3.45;;;2.45;;
16634;SDS011;8431;52.458;9.998;2022-09-09T02:42:13;2.50;;;2.30;;
16634;SDS011;8431;52.458;9.998;2022-09-09T02:44:40;6.93;;;2.70;;
16634;SDS011;8431;52.458;9.998;2022-09-09T02:47:13;3.75;;;2.75;;
16634;SDS011;8431;52.458;9.998;2022-09-09T02:49:53;4.53;;;2.70;;
16634;SDS011;8431;52.458;9.998;2022-09-09T02:52:32;3.70;;;2.50;;
16634;SDS011;8431;52.458;9.998;2022-09-09T02:55:06;4.82;;;2.30;;
16634;SDS011;8431;52.458;9.998;2022-09-09T02:57:38;2.40;;;2.20;;
16634;SDS011;8431;52.458;9.998;2022-09-09T03:00:08;4.40;;;2.30;;
16634;SDS011;8431;52.458;9.998;2022-09-09T03:02:38;6.07;;;2.63;;
16634;SDS011;8431;52.458;9.998;2022-09-09T03:05:05;3.33;;;2.20;;
16634;SDS011;8431;52.458;9.998;2022-09-09T03:13:48;2.78;;;2.53;;
16634;SDS011;8431;52.458;9.998;2022-09-09T03:16:15;4.85;;;2.40;;
16634;SDS011;8431;52.458;9.998;2022-09-09T03:18:44;3.90;;;2.40;;
16634;SDS011;8431;52.458;9.998;2022-09-09T03:21:11;5.90;;;2.55;;
16634;SDS011;8431;52.458;9.998;2022-09-09T03:23:38;4.00;;;2.30;;
16634;SDS011;8431;52.458;9.998;2022-09-09T03:26:06;7.13;;;2.50;;
16634;SDS011;8431;52.458;9.998;2022-09-09T03:28:33;5.13;;;2.58;;
16634;SDS011;8431;52.458;9.998;2022-09-09T03:31:00;4.07;;;2.75;;
16634;SDS011;8431;52.458;9.998;2022-09-09T03:33:27;4.72;;;2.85;;
16634;SDS011;8431;52.458;9.998;2022-09-09T03:35:56;6.60;;;2.70;;
16634;SDS011;8431;52.458;9.998;2022-09-09T03:38:23;4.20;;;2.55;;
16634;SDS011;8431;52.458;9.998;2022-09-09T03:40:51;4.10;;;2.58;;
16634;SDS011;8431;52.458;9.998;2022-09-09T03:43:25;3.75;;;2.70;;
16634;SDS011;8431;52.458;9.998;2022-09-09T03:45:53;4.82;;;2.60;;
16634;SDS011;8431;52.458;9.998;2022-09-09T03:48:21;2.63;;;2.40;;
16634;SDS011;8431;52.458;9.998;2022-09-09T03:50:50;3.67;;;2.58;;
16634;SDS011;8431;52.458;9.998;2022-09-09T03:53:20;5.78;;;2.42;;
16634;SDS011;8431;52.458;9.998;2022-09-09T03:55:50;2.75;;;2.40;;
16634;SDS011;8431;52.458;9.998;2022-09-09T03:58:19;3.85;;;2.78;;
16634;SDS011;8431;52.458;9.998;2022-09-09T04:00:59;4.97;;;2.90;;
16634;SDS011;8431;52.458;9.998;2022-09-09T04:03:27;3.47;;;2.67;;
16634;SDS011;8431;52.458;9.998;2022-09-09T04:05:58;2.88;;;2.67;;
16634;SDS011;8431;52.458;9.998;2022-09-09T04:08:28;4.35;;;2.70;;
16634;SDS011;8431;52.458;9.998;2022-09-09T04:10:57;2.88;;;2.50;;
16634;SDS011;8431;52.458;9.998;2022-09-09T04:13:25;4.90;;;3.03;;
16634;SDS011;8431;52.458;9.998;2022-09-09T04:15:52;2.80;;;2.55;;
16634;SDS011;8431;52.458;9.998;2022-09-09T04:18:20;2.50;;;2.30;;
16634;SDS011;8431;52.458;9.998;2022-09-09T04:20:48;3.28;;;2.63;;
16634;SDS011;8431;52.458;9.998;2022-09-09T04:23:16;4.97;;;2.60;;
16634;SDS011;8431;52.458;9.998;2022-09-09T04:25:50;2.30;;;2.17;;
16634;SDS011;8431;52.458;9.998;2022-09-09T04:28:18;8.05;;;2.50;;
16634;SDS011;8431;52.458;9.998;2022-09-09T04:30:47;5.53;;;2.83;;
16634;SDS011;8431;52.458;9.998;2022-09-09T04:33:14;3.00;;;2.65;;
16634;SDS011;8431;52.458;9.998;2022-09-09T04:35:44;3.92;;;2.35;;
16634;SDS011;8431;52.458;9.998;2022-09-09T04:38:16;5.32;;;2.53;;
16634;SDS011;8431;52.458;9.998;2022-09-09T04:40:43;5.90;;;2.55;;
16634;SDS011;8431;52.458;9.998;2022-09-09T04:43:14;5.28;;;3.30;;
16634;SDS011;8431;52.458;9.998;2022-09-09T04:45:41;4.25;;;3.05;;
16634;SDS011;8431;52.458;9.998;2022-09-09T04:48:09;9.00;;;3.55;;
16634;SDS011;8431;52.458;9.998;2022-09-09T04:50:36;5.35;;;3.05;;
16634;SDS011;8431;52.458;9.998;2022-09-09T04:53:04;6.30;;;3.25;;
16634;SDS011;8431;52.458;9.998;2022-09-09T04:55:32;3.90;;;2.70;;
16634;SDS011;8431;52.458;9.998;2022-09-09T04:58:02;6.38;;;2.83;;
16634;SDS011;8431;52.458;9.998;2022-09-09T05:00:48;4.60;;;2.80;;
16634;SDS011;8431;52.458;9.998;2022-09-09T05:03:17;7.88;;;3.38;;
16634;SDS011;8431;52.458;9.998;2022-09-09T05:05:44;5.50;;;2.97;;
16634;SDS011;8431;52.458;9.998;2022-09-09T05:08:11;4.45;;;3.00;;
16634;SDS011;8431;52.458;9.998;2022-09-09T05:10:38;4.55;;;3.30;;
16634;SDS011;8431;52.458;9.998;2022-09-09T05:13:07;5.05;;;3.17;;
16634;SDS011;8431;52.458;9.998;2022-09-09T05:15:34;3.42;;;2.58;;
16634;SDS011;8431;52.458;9.998;2022-09-09T05:18:23;6.03;;;3.55;;
16634;SDS011;8431;52.458;9.998;2022-09-09T05:20:50;7.75;;;3.30;;
16634;SDS011;8431;52.458;9.998;2022-09-09T05:23:17;8.13;;;3.63;;
16634;SDS011;8431;52.458;9.998;2022-09-09T05:25:52;8.70;;;3.35;;
16634;SDS011;8431;52.458;9.998;2022-09-09T05:28:22;5.10;;;3.00;;
16634;SDS011;8431;52.458;9.998;2022-09-09T05:30:57;7.80;;;4.30;;
16634;SDS011;8431;52.458;9.998;2022-09-09T05:33:29;5.03;;;3.08;;
16634;SDS011;8431;52.458;9.998;2022-09-09T05:35:58;4.25;;;3.55;;
16634;SDS011;8431;52.458;9.998;2022-09-09T05:38:32;7.18;;;3.30;;
16634;SDS011;8431;52.458;9.998;2022-09-09T05:41:01;4.50;;;2.97;;
16634;SDS011;8431;52.458;9.998;2022-09-09T05:43:30;5.68;;;3.30;;
16634;SDS011;8431;52.458;9.998;2022-09-09T05:46:01;5.53;;;2.80;;
16634;SDS011;8431;52.458;9.998;2022-09-09T05:48:32;4.75;;;3.08;;
16634;SDS011;8431;52.458;9.998;2022-09-09T05:51:01;7.10;;;3.72;;
16634;SDS011;8431;52.458;9.998;2022-09-09T05:53:28;9.10;;;3.70;;
16634;SDS011;8431;52.458;9.998;2022-09-09T05:56:00;7.65;;;3.55;;
16634;SDS011;8431;52.458;9.998;2022-09-09T05:58:31;4.50;;;3.95;;
16634;SDS011;8431;52.458;9.998;2022-09-09T06:01:02;9.55;;;3.92;;
16634;SDS011;8431;52.458;9.998;2022-09-09T06:03:38;6.28;;;3.40;;
16634;SDS011;8431;52.458;9.998;2022-09-09T06:06:16;6.88;;;3.78;;
16634;SDS011;8431;52.458;9.998;2022-09-09T06:11:18;5.60;;;3.17;;
16634;SDS011;8431;52.458;9.998;2022-09-09T06:13:46;7.20;;;3.08;;
16634;SDS011;8431;52.458;9.998;2022-09-09T06:16:16;7.35;;;3.15;;
16634;SDS011;8431;52.458;9.998;2022-09-09T06:18:46;9.13;;;3.45;;
16634;SDS011;8431;52.458;9.998;2022-09-09T06:21:30;5.85;;;2.95;;
16634;SDS011;8431;52.458;9.998;2022-09-09T06:24:09;6.75;;;3.10;;
16634;SDS011;8431;52.458;9.998;2022-09-09T06:29:55;6.65;;;3.10;;
16634;SDS011;8431;52.458;9.998;2022-09-09T06:32:23;4.75;;;3.33;;
16634;SDS011;8431;52.458;9.998;2022-09-09T06:34:51;4.63;;;3.38;;
16634;SDS011;8431;52.458;9.998;2022-09-09T06:37:21;9.73;;;3.70;;
16634;SDS011;8431;52.458;9.998;2022-09-09T06:39:49;8.07;;;3.50;;
16634;SDS011;8431;52.458;9.998;2022-09-09T06:42:22;4.50;;;3.40;;
16634;SDS011;8431;52.458;9.998;2022-09-09T06:44:52;7.28;;;3.38;;
16634;SDS011;8431;52.458;9.998;2022-09-09T06:47:19;7.38;;;3.53;;
16634;SDS011;8431;52.458;9.998;2022-09-09T06:49:47;4.88;;;3.45;;
16634;SDS011;8431;52.458;9.998;2022-09-09T06:52:18;7.00;;;3.60;;
16634;SDS011;8431;52.458;9.998;2022-09-09T06:54:45;3.65;;;3.33;;
16634;SDS011;8431;52.458;9.998;2022-09-09T06:57:15;9.48;;;3.83;;
16634;SDS011;8431;52.458;9.998;2022-09-09T06:59:46;5.55;;;3.17;;
16634;SDS011;8431;52.458;9.998;2022-09-09T07:02:13;4.78;;;3.20;;
16634;SDS011;8431;52.458;9.998;2022-09-09T07:04:40;6.65;;;3.60;;
16634;SDS011;8431;52.458;9.998;2022-09-09T07:07:11;7.70;;;3.40;;
16634;SDS011;8431;52.458;9.998;2022-09-09T07:09:41;6.95;;;3.50;;
16634;SDS011;8431;52.458;9.998;2022-09-09T07:12:10;7.90;;;3.42;;
16634;SDS011;8431;52.458;9.998;2022-09-09T07:14:38;7.57;;;3.35;;
16634;SDS011;8431;52.458;9.998;2022-09-09T07:17:05;6.57;;;3.28;;
16634;SDS011;8431;52.458;9.998;2022-09-09T07:19:32;5.75;;;3.40;;
16634;SDS011;8431;52.458;9.998;2022-09-09T07:22:00;6.53;;;3.25;;
16634;SDS011;8431;52.458;9.998;2022-09-09T07:24:27;7.18;;;3.50;;
16634;SDS011;8431;52.458;9.998;2022-09-09T07:26:56;4.20;;;3.08;;
16634;SDS011;8431;52.458;9.998;2022-09-09T07:29:24;3.83;;;3.08;;
16634;SDS011;8431;52.458;9.998;2022-09-09T07:31:51;3.53;;;3.22;;
16634;SDS011;8431;52.458;9.998;2022-09-09T07:34:18;5.38;;;3.42;;
16634;SDS011;8431;52.458;9.998;2022-09-09T07:36:46;5.85;;;3.22;;
16634;SDS011;8431;52.458;9.998;2022-09-09T07:39:21;6.03;;;3.40;;
16634;SDS011;8431;52.458;9.998;2022-09-09T07:41:49;3.97;;;2.97;;
16634;SDS011;8431;52.458;9.998;2022-09-09T07:44:18;4.18;;;3.40;;
16634;SDS011;8431;52.458;9.998;2022-09-09T07:46:48;6.30;;;3.38;;
16634;SDS011;8431;52.458;9.998;2022-09-09T07:49:15;3.72;;;2.53;;
16634;SDS011;8431;52.458;9.998;2022-09-09T07:51:44;12.05;;;3.05;;
16634;SDS011;8431;52.458;9.998;2022-09-09T07:54:14;5.80;;;2.42;;
16634;SDS011;8431;52.458;9.998;2022-09-09T07:56:42;5.10;;;2.83;;
16634;SDS011;8431;52.458;9.998;2022-09-09T07:59:09;3.40;;;2.47;;
16634;SDS011;8431;52.458;9.998;2022-09-09T08:01:39;8.23;;;2.92;;
16634;SDS011;8431;52.458;9.998;2022-09-09T08:04:08;8.30;;;3.17;;
16634;SDS011;8431;52.458;9.998;2022-09-09T08:06:41;6.15;;;3.00;;
16634;SDS011;8431;52.458;9.998;2022-09-09T08:09:09;6.30;;;2.78;;
16634;SDS011;8431;52.458;9.998;2022-09-09T08:11:37;4.57;;;3.10;;
16634;SDS011;8431;52.458;9.998;2022-09-09T08:14:05;8.68;;;3.10;;
16634;SDS011;8431;52.458;9.998;2022-09-09T08:16:34;8.15;;;3.00;;
16634;SDS011;8431;52.458;9.998;2022-09-09T08:19:04;5.75;;;3.20;;
16634;SDS011;8431;52.458;9.998;2022-09-09T08:21:32;4.00;;;3.00;;
16634;SDS011;8431;52.458;9.998;2022-09-09T08:24:02;3.97;;;3.33;;
16634;SDS011;8431;52.458;9.998;2022-09-09T08:26:30;4.07;;;2.85;;
16634;SDS011;8431;52.458;9.998;2022-09-09T08:29:07;5.75;;;3.08;;
16634;SDS011;8431;52.458;9.998;2022-09-09T08:31:43;5.70;;;2.90;;
16634;SDS011;8431;52.458;9.998;2022-09-09T08:37:14;5.20;;;2.58;;
16634;SDS011;8431;52.458;9.998;2022-09-09T08:40:22;4.70;;;2.22;;
16634;SDS011;8431;52.458;9.998;2022-09-09T08:43:44;3.00;;;2.15;;
16634;SDS011;8431;52.458;9.998;2022-09-09T08:55:39;3.58;;;1.70;;
16634;SDS011;8431;52.458;9.998;2022-09-09T08:58:16;7.15;;;1.90;;
16634;SDS011;8431;52.458;9.998;2022-09-09T09:00:56;4.70;;;1.90;;
16634;SDS011;8431;52.458;9.998;2022-09-09T09:03:40;2.13;;;1.65;;
16634;SDS011;8431;52.458;9.998;2022-09-09T09:06:20;1.40;;;1.30;;
16634;SDS011;8431;52.458;9.998;2022-09-09T09:09:20;4.95;;;1.38;;
16634;SDS011;8431;52.458;9.998;2022-09-09T09:11:59;2.08;;;1.70;;
16634;SDS011;8431;52.458;9.998;2022-09-09T09:14:33;3.60;;;1.50;;
16634;SDS011;8431;52.458;9.998;2022-09-09T09:17:02;4.75;;;1.45;;
16634;SDS011;8431;52.458;9.998;2022-09-09T09:19:41;3.20;;;2.10;;
16634;SDS011;8431;52.458;9.998;2022-09-09T09:22:21;2.00;;;1.80;;
16634;SDS011;8431;52.458;9.998;2022-09-09T09:25:20;2.67;;;1.88;;
16634;SDS011;8431;52.458;9.998;2022-09-09T09:27:52;3.42;;;1.90;;
16634;SDS011;8431;52.458;9.998;2022-09-09T09:30:46;2.65;;;1.60;;
16634;SDS011;8431;52.458;9.998;2022-09-09T09:33:41;2.50;;;1.35;;
16634;SDS011;8431;52.458;9.998;2022-09-09T09:36:18;4.40;;;1.73;;
16634;SDS011;8431;52.458;9.998;2022-09-09T09:46:25;2.50;;;1.58;;
16634;SDS011;8431;52.458;9.998;2022-09-09T09:49:01;3.50;;;1.77;;
16634;SDS011;8431;52.458;9.998;2022-09-09T09:51:41;2.97;;;1.48;;
16634;SDS011;8431;52.458;9.998;2022-09-09T09:54:17;4.03;;;1.70;;
16634;SDS011;8431;52.458;9.998;2022-09-09T09:56:52;3.05;;;1.50;;
16634;SDS011;8431;52.458;9.998;2022-09-09T09:59:36;3.58;;;1.42;;
16634;SDS011;8431;52.458;9.998;2022-09-09T10:02:25;1.85;;;1.42;;
16634;SDS011;8431;52.458;9.998;2022-09-09T10:05:35;2.67;;;1.33;;
16634;SDS011;8431;52.458;9.998;2022-09-09T10:08:28;6.55;;;1.63;;
16634;SDS011;8431;52.458;9.998;2022-09-09T10:14:40;2.92;;;1.45;;
16634;SDS011;8431;52.458;9.998;2022-09-09T10:45:08;2.67;;;1.52;;
16634;SDS011;8431;52.458;9.998;2022-09-09T10:49:08;3.92;;;1.73;;
16634;SDS011;8431;52.458;9.998;2022-09-09T10:52:38;3.60;;;1.83;;
16634;SDS011;8431;52.458;9.998;2022-09-09T10:55:51;3.03;;;1.77;;
16634;SDS011;8431;52.458;9.998;2022-09-09T11:03:01;2.63;;;1.50;;
16634;SDS011;8431;52.458;9.998;2022-09-09T11:06:04;2.45;;;1.33;;
16634;SDS011;8431;52.458;9.998;2022-09-09T11:08:38;2.67;;;1.35;;
16634;SDS011;8431;52.458;9.998;2022-09-09T11:11:11;2.88;;;1.27;;
16634;SDS011;8431;52.458;9.998;2022-09-09T11:13:44;5.72;;;1.83;;
16634;SDS011;8431;52.458;9.998;2022-09-09T11:16:23;6.47;;;1.60;;
16634;SDS011;8431;52.458;9.998;2022-09-09T11:19:09;2.50;;;1.23;;
16634;SDS011;8431;52.458;9.998;2022-09-09T11:25:31;3.55;;;1.45;;
16634;SDS011;8431;52.458;9.998;2022-09-09T11:28:23;4.00;;;1.60;;
16634;SDS011;8431;52.458;9.998;2022-09-09T11:31:12;4.68;;;1.77;;
16634;SDS011;8431;52.458;9.998;2022-09-09T11:34:31;3.15;;;1.30;;
16634;SDS011;8431;52.458;9.998;2022-09-09T11:37:27;4.90;;;1.60;;
16634;SDS011;8431;52.458;9.998;2022-09-09T11:40:27;4.30;;;1.50;;
16634;SDS011;8431;52.458;9.998;2022-09-09T11:43:10;2.80;;;1.48;;
16634;SDS011;8431;52.458;9.998;2022-09-09T11:45:58;2.28;;;1.48;;
16634;SDS011;8431;52.458;9.998;2022-09-09T11:54:54;2.13;;;1.20;;
16634;SDS011;8431;52.458;9.998;2022-09-09T11:57:47;2.72;;;1.27;;
16634;SDS011;8431;52.458;9.998;2022-09-09T12:03:05;3.17;;;1.30;;
16634;SDS011;8431;52.458;9.998;2022-09-09T12:06:08;3.10;;;0.90;;
16634;SDS011;8431;52.458;9.998;2022-09-09T12:08:50;1.48;;;0.98;;
16634;SDS011;8431;52.458;9.998;2022-09-09T12:11:28;6.07;;;1.10;;
16634;SDS011;8431;52.458;9.998;2022-09-09T12:14:00;4.35;;;0.90;;
16634;SDS011;8431;52.458;9.998;2022-09-09T12:16:31;2.28;;;0.68;;
16634;SDS011;8431;52.458;9.998;2022-09-09T12:19:14;1.45;;;0.80;;
16634;SDS011;8431;52.458;9.998;2022-09-09T12:22:00;1.85;;;0.88;;
16634;SDS011;8431;52.458;9.998;2022-09-09T12:24:35;1.98;;;1.10;;
16634;SDS011;8431;52.458;9.998;2022-09-09T12:27:11;1.42;;;1.08;;
16634;SDS011;8431;52.458;9.998;2022-09-09T12:29:50;1.95;;;1.35;;
16634;SDS011;8431;52.458;9.998;2022-09-09T12:32:41;1.48;;;0.88;;
16634;SDS011;8431;52.458;9.998;2022-09-09T12:35:10;2.35;;;1.00;;
16634;SDS011;8431;52.458;9.998;2022-09-09T12:37:46;5.47;;;1.40;;
16634;SDS011;8431;52.458;9.998;2022-09-09T12:50:04;7.18;;;1.63;;
16634;SDS011;8431;52.458;9.998;2022-09-09T12:52:41;5.28;;;1.20;;
16634;SDS011;8431;52.458;9.998;2022-09-09T12:55:35;2.53;;;1.20;;
16634;SDS011;8431;52.458;9.998;2022-09-09T12:59:22;1.77;;;1.40;;
16634;SDS011;8431;52.458;9.998;2022-09-09T13:02:24;5.13;;;1.30;;
16634;SDS011;8431;52.458;9.998;2022-09-09T13:04:54;1.60;;;1.00;;
16634;SDS011;8431;52.458;9.998;2022-09-09T13:07:39;2.33;;;1.33;;
16634;SDS011;8431;52.458;9.998;2022-09-09T13:10:10;1.35;;;1.20;;
16634;SDS011;8431;52.458;9.998;2022-09-09T13:12:55;4.20;;;1.30;;
16634;SDS011;8431;52.458;9.998;2022-09-09T13:15:23;1.65;;;1.25;;
16634;SDS011;8431;52.458;9.998;2022-09-09T13:17:54;3.58;;;1.30;;
16634;SDS011;8431;52.458;9.998;2022-09-09T13:20:32;2.65;;;1.20;;
16634;SDS011;8431;52.458;9.998;2022-09-09T13:22:59;1.55;;;1.10;;
16634;SDS011;8431;52.458;9.998;2022-09-09T13:32:12;2.35;;;1.40;;
16634;SDS011;8431;52.458;9.998;2022-09-09T13:35:22;1.55;;;1.25;;
16634;SDS011;8431;52.458;9.998;2022-09-09T13:37:52;1.13;;;1.05;;
16634;SDS011;8431;52.458;9.998;2022-09-09T13:40:20;2.92;;;1.08;;
16634;SDS011;8431;52.458;9.998;2022-09-09T13:42:51;3.28;;;1.45;;
16634;SDS011;8431;52.458;9.998;2022-09-09T13:45:22;1.55;;;1.10;;
16634;SDS011;8431;52.458;9.998;2022-09-09T13:48:08;3.80;;;1.08;;
16634;SDS011;8431;52.458;9.998;2022-09-09T13:50:38;3.20;;;1.40;;
16634;SDS011;8431;52.458;9.998;2022-09-09T13:55:49;1.75;;;1.35;;
16634;SDS011;8431;52.458;9.998;2022-09-09T13:58:18;2.10;;;1.20;;
16634;SDS011;8431;52.458;9.998;2022-09-09T14:00:55;3.42;;;1.25;;
16634;SDS011;8431;52.458;9.998;2022-09-09T14:03:27;3.28;;;1.48;;
16634;SDS011;8431;52.458;9.998;2022-09-09T14:06:06;1.20;;;1.10;;
16634;SDS011;8431;52.458;9.998;2022-09-09T14:08:35;3.90;;;1.40;;
16634;SDS011;8431;52.458;9.998;2022-09-09T14:11:04;2.78;;;1.20;;
16634;SDS011;8431;52.458;9.998;2022-09-09T14:13:41;1.92;;;1.50;;
16634;SDS011;8431;52.458;9.998;2022-09-09T14:16:10;1.10;;;1.00;;
16634;SDS011;8431;52.458;9.998;2022-09-09T14:18:37;2.53;;;1.30;;
16634;SDS011;8431;52.458;9.998;2022-09-09T14:21:09;1.45;;;1.30;;
16634;SDS011;8431;52.458;9.998;2022-09-09T14:23:46;1.73;;;1.23;;
16634;SDS011;8431;52.458;9.998;2022-09-09T14:26:35;1.98;;;1.20;;
16634;SDS011;8431;52.458;9.998;2022-09-09T14:29:13;2.65;;;1.13;;
16634;SDS011;8431;52.458;9.998;2022-09-09T14:31:40;1.38;;;1.00;;
16634;SDS011;8431;52.458;9.998;2022-09-09T14:39:57;2.55;;;0.98;;
16634;SDS011;8431;52.458;9.998;2022-09-09T14:44:57;1.42;;;1.08;;
16634;SDS011;8431;52.458;9.998;2022-09-09T14:47:24;1.17;;;1.08;;
16634;SDS011;8431;52.458;9.998;2022-09-09T14:49:55;2.47;;;1.20;;
16634;SDS011;8431;52.458;9.998;2022-09-09T14:52:25;3.42;;;1.42;;
16634;SDS011;8431;52.458;9.998;2022-09-09T14:54:54;2.25;;;1.35;;
16634;SDS011;8431;52.458;9.998;2022-09-09T14:57:23;3.58;;;1.50;;
16634;SDS011;8431;52.458;9.998;2022-09-09T14:59:51;3.83;;;1.55;;
16634;SDS011;8431;52.458;9.998;2022-09-09T15:02:18;2.17;;;1.58;;
16634;SDS011;8431;52.458;9.998;2022-09-09T15:04:45;2.08;;;1.23;;
16634;SDS011;8431;52.458;9.998;2022-09-09T15:07:12;3.50;;;1.38;;
16634;SDS011;8431;52.458;9.998;2022-09-09T15:09:41;2.28;;;1.50;;
16634;SDS011;8431;52.458;9.998;2022-09-09T15:12:18;4.30;;;1.52;;
16634;SDS011;8431;52.458;9.998;2022-09-09T15:15:05;1.08;;;0.90;;
16634;SDS011;8431;52.458;9.998;2022-09-09T15:17:32;2.28;;;1.42;;
16634;SDS011;8431;52.458;9.998;2022-09-09T15:20:00;1.30;;;1.20;;
16634;SDS011;8431;52.458;9.998;2022-09-09T15:22:28;1.88;;;1.05;;
16634;SDS011;8431;52.458;9.998;2022-09-09T15:24:57;1.92;;;1.30;;
16634;SDS011;8431;52.458;9.998;2022-09-09T15:27:35;2.97;;;1.35;;
16634;SDS011;8431;52.458;9.998;2022-09-09T15:30:04;2.88;;;1.33;;
16634;SDS011;8431;52.458;9.998;2022-09-09T15:32:32;1.95;;;1.25;;
16634;SDS011;8431;52.458;9.998;2022-09-09T15:35:00;3.08;;;1.38;;
16634;SDS011;8431;52.458;9.998;2022-09-09T15:37:27;1.60;;;1.08;;
16634;SDS011;8431;52.458;9.998;2022-09-09T15:39:54;2.17;;;1.10;;
16634;SDS011;8431;52.458;9.998;2022-09-09T15:42:27;1.05;;;0.93;;
16634;SDS011;8431;52.458;9.998;2022-09-09T15:45:31;3.55;;;1.48;;
16634;SDS011;8431;52.458;9.998;2022-09-09T15:47:59;1.77;;;1.13;;
16634;SDS011;8431;52.458;9.998;2022-09-09T15:50:30;1.52;;;1.38;;
16634;SDS011;8431;52.458;9.998;2022-09-09T15:53:03;2.35;;;1.40;;
16634;SDS011;8431;52.458;9.998;2022-09-09T15:55:31;2.17;;;1.67;;
16634;SDS011;8431;52.458;9.998;2022-09-09T16:01:05;4.30;;;1.42;;
16634;SDS011;8431;52.458;9.998;2022-09-09T16:03:42;2.03;;;1.15;;
16634;SDS011;8431;52.458;9.998;2022-09-09T16:06:32;2.33;;;1.35;;
16634;SDS011;8431;52.458;9.998;2022-09-09T16:09:09;2.80;;;1.20;;
16634;SDS011;8431;52.458;9.998;2022-09-09T16:11:39;2.17;;;1.15;;
16634;SDS011;8431;52.458;9.998;2022-09-09T16:14:08;3.33;;;1.20;;
16634;SDS011;8431;52.458;9.998;2022-09-09T16:16:42;2.95;;;1.60;;
16634;SDS011;8431;52.458;9.998;2022-09-09T16:19:10;1.85;;;1.27;;
16634;SDS011;8431;52.458;9.998;2022-09-09T16:21:47;3.35;;;1.70;;
16634;SDS011;8431;52.458;9.998;2022-09-09T16:24:16;2.33;;;1.30;;
16634;SDS011;8431;52.458;9.998;2022-09-09T16:26:47;2.78;;;1.33;;
16634;SDS011;8431;52.458;9.998;2022-09-09T16:29:17;2.45;;;1.40;;
16634;SDS011;8431;52.458;9.998;2022-09-09T16:31:46;1.83;;;1.20;;
16634;SDS011;8431;52.458;9.998;2022-09-09T16:34:20;2.33;;;1.40;;
16634;SDS011;8431;52.458;9.998;2022-09-09T16:36:50;2.25;;;0.95;;
16634;SDS011;8431;52.458;9.998;2022-09-09T16:39:18;2.58;;;1.38;;
16634;SDS011;8431;52.458;9.998;2022-09-09T16:41:47;2.00;;;1.40;;
16634;SDS011;8431;52.458;9.998;2022-09-09T16:44:17;2.20;;;1.33;;
16634;SDS011;8431;52.458;9.998;2022-09-09T16:46:44;1.55;;;1.30;;
16634;SDS011;8431;52.458;9.998;2022-09-09T16:49:13;3.28;;;1.50;;
16634;SDS011;8431;52.458;9.998;2022-09-09T16:51:41;4.50;;;1.52;;
16634;SDS011;8431;52.458;9.998;2022-09-09T16:54:10;2.25;;;1.38;;
16634;SDS011;8431;52.458;9.998;2022-09-09T16:56:46;2.90;;;1.70;;
16634;SDS011;8431;52.458;9.998;2022-09-09T16:59:20;2.17;;;1.38;;
16634;SDS011;8431;52.458;9.998;2022-09-09T17:01:58;1.65;;;1.38;;
16634;SDS011;8431;52.458;9.998;2022-09-09T17:04:40;3.58;;;1.58;;
16634;SDS011;8431;52.458;9.998;2022-09-09T17:07:09;1.60;;;1.05;;
16634;SDS011;8431;52.458;9.998;2022-09-09T17:09:38;1.88;;;1.25;;
16634;SDS011;8431;52.458;9.998;2022-09-09T17:12:13;1.88;;;1.30;;
16634;SDS011;8431;52.458;9.998;2022-09-09T17:14:45;3.90;;;1.40;;
16634;SDS011;8431;52.458;9.998;2022-09-09T17:17:12;3.55;;;1.10;;
16634;SDS011;8431;52.458;9.998;2022-09-09T17:19:56;4.45;;;1.27;;
16634;SDS011;8431;52.458;9.998;2022-09-09T17:22:35;1.75;;;1.42;;
16634;SDS011;8431;52.458;9.998;2022-09-09T17:25:03;1.58;;;1.38;;
16634;SDS011;8431;52.458;9.998;2022-09-09T17:27:30;2.13;;;1.90;;
16634;SDS011;8431;52.458;9.998;2022-09-09T17:29:59;2.70;;;2.50;;
16634;SDS011;8431;52.458;9.998;2022-09-09T17:32:27;4.43;;;3.15;;
16634;SDS011;8431;52.458;9.998;2022-09-09T17:34:55;3.30;;;2.35;;